Flight Track Log - Related Links

Times and Time Zones

All times are in EDT time to prevent confusion due to time zone crossing. See the EGF4247 flight status page for this flight to view local times or setup timezone preferences in your user account.

Time Position Orientation Groundspeed Altitude Reporting Facility
EDT Latitude Longitude Course Direction KTS km/h feet Rate Location/Type
Wed 04:58:45 PM 42.9167 -78.7500 270° West 172 319 1.600  Level Buffalo TRACON
Wed 04:59:03 PM 42.9167 -78.7500 270° West 171 317 2.300 2.077 Climbing Buffalo TRACON
Wed 05:00:03 PM 42.8833 -78.8333 241° Southwest 233 431 4.300 2.250 Climbing Buffalo TRACON
Wed 05:01:00 PM 42.9526 -79.0971 277° West  Level FlightAware Approximate
Wed 05:01:03 PM 42.9000 -78.9333 283° West 288 533 6.800  Level Buffalo TRACON
Wed 05:02:00 PM 42.9631 -79.2240 277° West  Level FlightAware Approximate
Wed 05:02:03 PM 42.9000 -79.0333 270° West 285 528 9.200  Level Buffalo TRACON
Wed 05:03:00 PM 42.9667 -79.3515 270° West  Level FlightAware Approximate
Wed 05:03:03 PM 42.9167 -79.1500 281° West 308 570 10.700  Level Buffalo TRACON
Wed 05:03:57 PM 42.9167 -79.2500 270° West 340 629 12.000 1.211 Climbing Toronto Center
Wed 05:04:00 PM 42.9667 -79.4792 270° West  Level FlightAware Approximate
Wed 05:04:57 PM 42.9167 -79.3833 270° West 370 686 13.000  Level Toronto Center
Wed 05:05:57 PM 42.9333 -79.5500 278° West 380 703 14.800 1.600 Climbing Toronto Center
Wed 05:06:57 PM 42.9333 -79.6833 270° West 380 703 16.200 1.500 Climbing Toronto Center
Wed 05:07:57 PM 42.9500 -79.8167 280° West 380 703 17.800 1.400 Climbing Toronto Center
Wed 05:08:57 PM 42.9667 -79.9667 279° West 380 703 19.000 1.200 Climbing Toronto Center
Wed 05:09:57 PM 42.9667 -80.1167 270° West 390 723 20.200 1.200 Climbing Toronto Center
Wed 05:10:57 PM 42.9833 -80.2667 279° West 400 740 21.400 1.250 Climbing Toronto Center
Wed 05:11:57 PM 42.9833 -80.4333 270° West 410 760 22.700 1.250 Climbing Toronto Center
Wed 05:12:57 PM 42.9833 -80.5667 270° West 410 760 23.900 1.000 Climbing Toronto Center
Wed 05:13:57 PM 42.9833 -80.7333 270° West 410 760 24.700 700 Climbing Toronto Center
Wed 05:14:57 PM 42.9667 -80.8833 261° West 420 777 25.300 700 Climbing Toronto Center
Wed 05:15:57 PM 42.9667 -81.0667 270° West 430 797 26.100 750 Climbing Toronto Center
Wed 05:16:57 PM 42.9833 -81.2333 278° West 430 797 26.800 700 Climbing Toronto Center
Wed 05:17:57 PM 42.9833 -81.3833 270° West 430 797 27.500 650 Climbing Toronto Center
Wed 05:18:57 PM 42.9833 -81.5500 270° West 430 797 28.100 550 Climbing Toronto Center
Wed 05:19:57 PM 42.9833 -81.7333 270° West 440 814 28.600 500 Climbing Toronto Center
Wed 05:20:57 PM 42.9833 -81.8833 270° West 440 814 29.100 500 Climbing Toronto Center
Wed 05:21:57 PM 42.9667 -82.0500 262° West 440 814 29.600 500 Climbing Toronto Center
Wed 05:22:57 PM 42.9667 -82.2333 270° West 450 834 30.100 600 Climbing Toronto Center
Wed 05:23:57 PM 42.9833 -82.3833 279° West 450 834 30.800 700 Climbing Toronto Center
Wed 05:24:57 PM 42.9833 -82.5667 270° West 450 834 31.500 661 Climbing Toronto Center
Wed 05:25:46 PM 42.9828 -82.6947 270° West 451 835 32.000 275 Climbing Cleveland Center
Wed 05:26:46 PM 42.9817 -82.8650 270° West 451 835 32.000  Level Cleveland Center
Wed 05:27:46 PM 42.9781 -83.0378 268° West 457 847 32.000  Level Cleveland Center
Wed 05:28:46 PM 42.9742 -83.2081 268° West 457 847 32.000  Level Cleveland Center
Wed 05:29:46 PM 42.9722 -83.3811 269° West 457 847 32.000  Level Cleveland Center
Wed 05:30:46 PM 42.9700 -83.5542 269° West 457 847 32.000  Level Cleveland Center
Wed 05:31:46 PM 42.9656 -83.7214 268° West 457 847 32.000  Level Cleveland Center
Wed 05:32:46 PM 42.9525 -83.8936 264° West 457 847 32.000  Level Cleveland Center
Wed 05:33:46 PM 42.9344 -84.0772 262° West 462 856 32.000  Level Cleveland Center
Wed 05:34:46 PM 42.9169 -84.2464 262° West 462 856 32.000  Level Cleveland Center
Wed 05:36:00 PM 42.8994 -84.4253 262° West 446 826 32.000  Level Chicago Center
Wed 05:37:02 PM 42.8817 -84.5933 262° West 449 832 32.000  Level Chicago Center
Wed 05:38:04 PM 42.8617 -84.7983 262° West 454 840 32.000  Level Chicago Center
Wed 05:39:06 PM 42.8425 -84.9686 261° West 455 843 32.000  Level Chicago Center
Wed 05:40:08 PM 42.8253 -85.1394 262° West 455 843 32.000  Level Chicago Center
Wed 05:41:11 PM 42.8072 -85.3086 262° West 453 838 32.000 -288 Level Chicago Center
Wed 05:42:13 PM 42.7886 -85.4781 262° West 452 837 31.400 -1.597 Descending Chicago Center
Wed 05:43:15 PM 42.7600 -85.6436 257° West 449 832 28.700 -3.000 Descending Chicago Center
Wed 05:44:17 PM 42.7225 -85.8467 256° West 456 845 25.200 -2.952 Descending Chicago Center
Wed 05:45:19 PM 42.6933 -86.0122 257° West 449 832 22.600 -2.274 Descending Chicago Center
Wed 05:46:21 PM 42.6642 -86.1692 256° West 432 800 20.500 -1.258 Descending Chicago Center
Wed 05:47:23 PM 42.6358 -86.3225 256° West 420 777 20.000 -242 Descending Chicago Center
Wed 05:48:25 PM 42.6061 -86.4750 255° West 419 776 20.000 -1.065 Level Chicago Center
Wed 05:49:27 PM 42.5786 -86.6219 256° West 407 753 17.800 -2.352 Descending Chicago Center
Wed 05:50:30 PM 42.5514 -86.7647 256° West 394 729 15.100 -2.736 Descending Chicago Center
Wed 05:51:32 PM 42.5075 -86.9197 249° West 370 686 12.100 -2.468 Descending Chicago Center
Wed 05:52:34 PM 42.4739 -87.0428 250° West 356 660 10.000 -1.065 Descending Chicago Center
Wed 05:53:36 PM 42.4411 -87.1583 249° West 336 623 9.900 -97 Descending Chicago Center
Wed 05:54:38 PM 42.4117 -87.2656 250° West 308 570 9.800 -532 Descending Chicago Center
Wed 05:55:40 PM 42.3872 -87.3575 250° West 263 488 8.800 -1.065 Descending Chicago Center
Wed 05:56:42 PM 42.3558 -87.4644 248° West 260 481 7.600 -864 Descending Chicago Center
Wed 05:57:45 PM 42.3161 -87.5439 236° Southwest 257 476 7.000 -288 Descending Chicago Center
Wed 05:58:47 PM 42.2606 -87.6031 218° Southwest 254 470 7.000 -387 Level Chicago Center
Wed 05:59:49 PM 42.2128 -87.6569 220° Southwest 227 420 6.200 -1.016 Descending Chicago Center
Wed 06:00:51 PM 42.1669 -87.7094 220° Southwest 218 404 4.900 -1.306 Descending Chicago Center
Wed 06:01:53 PM 42.1125 -87.7706 220° Southwest 215 398 3.500 -1.259 Descending Chicago Center
Wed 06:02:12 PM 42.1000 -87.7833 217° Southwest 220 407 3.200 -947 Descending Chicago TRACON

Login

Don't have an account? Register now (free) for customized features, flight alerts, and more!